Lebanon Junction, Kentucky
Current Conditions -  °F | °C
As of 6:58 AM on Thursday 29 Jan 2015 (Local Time) from KFTK Reporting Station
Broken Clouds Broken Clouds  
Wind Chill: 33°   Ceiling: 6500
Heat Index: 41°   Visibility: 10mi
Dew Point: 32°   Wind: 15mph
Humidity: 70%   Direction: 170°S
Pressure: 29.9"   Gusts: NA
Location:  37.83°N, 85.73°W
Report Text: KFTK 291158Z 17013KT 10SM BKN065 BKN080 05/00 A2990 RMK AO2A SLP133 P0001 60002 70002 57025
Loading
Personal Weather Stations






























Interactive Weather Map New forecast layout! Learn more

10-Day Weather Forecast

Advertisements
Track Severe Weather on mobile